Date,TemperatureHighF,TemperatureAvgF,TemperatureLowF,DewpointHighF,DewpointAvgF,DewpointLowF,HumidityHigh,HumidityAvg,HumidityLow,PressureMaxIn,PressureMinIn,WindSpeedMaxMPH,WindSpeedAvgMPH,GustSpeedMaxMPH,PrecipitationSumIn
2013-10-1,80,64,51,62,57,50,98,80,47,30.02,29.91,4,0,6,0.00
2013-10-2,82,67,54,65,60,53,99,79,53,30.03,29.92,5,0,7,0.00
2013-10-3,77,66,54,62,58,51,98,79,42,30.13,30.02,3,0,4,0.00
2013-10-4,85,70,58,68,64,57,98,82,54,30.07,29.97,5,0,5,0.00
2013-10-5,76,68,63,67,64,62,98,90,73,30.10,30.01,5,0,5,0.06
2013-10-6,68,65,64,67,65,63,99,98,96,30.10,30.03,11,0,11,0.02
2013-10-7,77,65,53,71,64,52,99,96,81,30.03,29.74,12,1,17,0.53
2013-10-8,66,56,47,52,48,45,98,78,48,30.33,29.99,3,0,6,0.00
2013-10-9,60,55,49,50,46,40,87,73,63,30.41,30.29,7,0,8,0.00
2013-10-10,60,56,51,56,51,46,93,85,79,30.29,30.08,10,0,10,0.03
2013-10-11,65,61,57,61,57,53,96,87,83,30.10,30.02,7,0,8,0.02
2013-10-12,70,63,57,59,50,31,87,62,26,30.29,30.07,13,1,15,0.00
2013-10-13,63,57,52,54,51,49,93,81,68,30.40,30.27,7,1,8,0.00
2013-10-14,66,55,45,52,49,44,99,82,57,30.37,30.25,6,0,7,0.00
2013-10-15,71,56,45,56,50,45,99,82,54,30.27,30.13,4,0,5,0.00
2013-10-16,64,54,48,59,52,47,96,93,80,30.13,29.92,2,0,3,0.00
2013-10-17,63,62,59,62,60,58,96,96,95,29.93,29.69,4,0,5,0.01
2013-10-18,68,59,46,62,49,42,96,71,44,30.00,29.68,8,0,9,0.00
2013-10-19,62,52,41,54,46,40,98,81,52,30.00,29.76,5,0,7,0.00
2013-10-20,56,50,43,53,43,37,93,79,53,30.08,29.77,5,0,5,0.00
2013-10-21,67,54,40,46,40,35,93,63,32,30.16,29.99,6,0,7,0.00
2013-10-22,65,52,44,52,46,38,98,82,58,30.00,29.76,5,0,8,0.00
2013-10-23,54,45,37,42,38,35,95,78,51,29.83,29.63,6,0,6,0.00
2013-10-24,55,42,33,38,32,27,97,71,42,30.03,29.77,7,0,9,0.00
2013-10-25,53,41,32,36,32,29,93,72,46,30.25,30.03,6,0,8,0.00
2013-10-26,55,44,33,35,33,30,93,66,41,30.24,29.90,9,0,11,0.00
2013-10-27,58,48,38,37,34,32,83,60,40,30.14,29.86,3,0,3,0.00
2013-10-28,61,47,32,38,35,30,96,66,38,30.33,30.14,7,0,9,0.00
2013-10-29,55,46,37,38,34,32,86,65,46,30.42,30.33,3,0,5,0.00
2013-10-30,59,47,36,51,43,32,97,84,69,30.36,30.19,3,0,3,0.00
2013-10-31,63,56,43,60,54,42,99,94,82,30.24,29.80,9,0,9,0.06